• Join FlightAware (Why Join?)
  • Login
  • US Flag 
11:57AM EST


 

Airport Tracker/Info


-or-


 

Live Flight TrackerFlight Track Log ✈ SKQ225 ✈ 24-Apr-2013 ✈ KOSU - KSDF

Flight Track Log - Related Links

Times and Time Zones

All times are in EDT time to prevent confusion due to time zone crossing. See the SKQ225 flight status page for this flight to view local times or setup timezone preferences in your user account.

Time Position Orientation Groundspeed Altitude Reporting Facility
EDT Latitude Longitude Course Direction KTS MPH feet Rate Location/Type
02:26AM 40.0764 -83.0847 228° Southwest 109 125 1,100  Level Indianapolis Center
02:27AM 40.0675 -83.1247 254° West 100 115 2,700 1,380 Climbing Indianapolis Center
02:28AM 40.0594 -83.1361 227° Southwest 98 113 3,300 1,260 Climbing Indianapolis Center
02:28AM 40.0489 -83.1497 225° Southwest 78 90 4,000 1,140 Climbing Indianapolis Center
02:29AM 40.0436 -83.1572 227° Southwest 88 101 4,500 1,140 Climbing Indianapolis Center
02:29AM 40.0350 -83.1697 228° Southwest 78 90 5,200 1,200 Climbing Indianapolis Center
02:30AM 40.0283 -83.1786 226° Southwest 82 94 5,700 1,080 Climbing Indianapolis Center
02:30AM 40.0186 -83.1925 228° Southwest 84 97 6,300 900 Climbing Indianapolis Center
02:31AM 40.0142 -83.1983 225° Southwest 85 98 6,600 960 Climbing Indianapolis Center
02:31AM 40.0025 -83.2150 228° Southwest 88 101 7,300 960 Climbing Indianapolis Center
02:32AM 39.9313 -83.2891 228° Southwest  Level Estimated
02:32AM 39.9972 -83.2239 232° Southwest 90 104 7,600  Level Indianapolis Center
02:32AM 39.9817 -83.2453 226° Southwest 108 124 8,000 360 Climbing Indianapolis Center
02:33AM 39.9758 -83.2542 229° Southwest 115 132 8,000  Level Indianapolis Center
02:33AM 39.9558 -83.2831 228° Southwest 156 180 8,000  Level Indianapolis Center
02:34AM 39.9481 -83.2950 230° Southwest 147 169 8,000  Level Indianapolis Center
02:34AM 39.9278 -83.3231 227° Southwest 149 171 8,000  Level Indianapolis Center
02:35AM 39.9203 -83.3342 229° Southwest 147 169 8,000  Level Indianapolis Center
02:35AM 39.9000 -83.3606 225° Southwest 148 170 8,000  Level Indianapolis Center
02:36AM 39.8925 -83.3733 233° Southwest 146 168 8,000  Level Indianapolis Center
02:36AM 39.8719 -83.4033 228° Southwest 148 170 8,000  Level Indianapolis Center
02:37AM 39.8639 -83.4147 227° Southwest 149 171 8,000  Level Indianapolis Center
02:37AM 39.8439 -83.4433 228° Southwest 146 168 8,000  Level Indianapolis Center
02:38AM 39.8358 -83.4536 224° Southwest 146 168 8,000  Level Indianapolis Center
02:38AM 39.8158 -83.4836 229° Southwest 145 167 8,000  Level Indianapolis Center
02:39AM 39.8075 -83.4947 226° Southwest 145 167 8,000  Level Indianapolis Center
02:39AM 39.7900 -83.5211 229° Southwest 146 168 8,000  Level Indianapolis Center
02:40AM 39.7806 -83.5336 225° Southwest 143 165 8,000  Level Indianapolis Center
02:40AM 39.7619 -83.5611 229° Southwest 146 168 8,000  Level Indianapolis Center
02:41AM 39.7522 -83.5739 225° Southwest 148 170 8,000  Level Indianapolis Center
02:41AM 39.7339 -83.6011 229° Southwest 148 170 8,000  Level Indianapolis Center
02:42AM 39.7281 -83.6075 220° Southwest 149 171 8,000  Level Indianapolis Center
02:42AM 39.7061 -83.6383 227° Southwest 147 169 8,000  Level Indianapolis Center
02:43AM 39.7006 -83.6469 230° Southwest 148 170 8,000  Level Indianapolis Center
02:43AM 39.6758 -83.6806 226° Southwest 147 169 8,000  Level Indianapolis Center
02:44AM 39.6722 -83.6861 230° Southwest 146 168 8,000  Level Indianapolis Center
02:44AM 39.6500 -83.7181 228° Southwest 142 163 8,000  Level Indianapolis Center
02:45AM 39.6450 -83.7242 223° Southwest 145 167 8,000  Level Indianapolis Center
02:45AM 39.6219 -83.7550 226° Southwest 144 166 8,000  Level Indianapolis Center
02:46AM 39.6183 -83.7628 239° Southwest 143 165 8,000  Level Indianapolis Center
02:46AM 39.5958 -83.7953 228° Southwest 140 161 8,000  Level Indianapolis Center
02:47AM 39.5914 -83.8003 221° Southwest 142 163 8,000  Level Indianapolis Center
02:47AM 39.5681 -83.8322 227° Southwest 143 165 8,000  Level Indianapolis Center
02:48AM 39.5639 -83.8389 231° Southwest 143 165 8,000  Level Indianapolis Center
02:48AM 39.5419 -83.8694 227° Southwest 141 162 8,000  Level Indianapolis Center
02:49AM 39.5369 -83.8769 229° Southwest 142 163 8,000  Level Indianapolis Center
02:49AM 39.5158 -83.9094 230° Southwest 141 162 8,000  Level Indianapolis Center
02:50AM 39.5106 -83.9150 219° Southwest 141 162 8,000  Level Indianapolis Center
02:50AM 39.4881 -83.9464 227° Southwest 143 165 8,000  Level Indianapolis Center
02:51AM 39.4831 -83.9533 227° Southwest 143 165 8,000  Level Indianapolis Center
02:52AM 39.4558 -83.9917 227° Southwest 144 166 8,000  Level Indianapolis Center
02:53AM 39.4272 -84.0303 226° Southwest 146 168 8,000  Level Indianapolis Center
02:54AM 39.4008 -84.0689 229° Southwest 143 165 8,000  Level Indianapolis Center
02:55AM 39.3728 -84.1067 226° Southwest 143 165 8,000  Level Indianapolis Center
02:56AM 39.3461 -84.1453 228° Southwest 143 165 8,000  Level Indianapolis Center
02:57AM 39.3183 -84.1825 226° Southwest 144 166 8,000  Level Indianapolis Center
02:58AM 39.2908 -84.2211 227° Southwest 143 165 8,000  Level Indianapolis Center
02:59AM 39.2633 -84.2597 227° Southwest 145 167 8,000  Level Indianapolis Center
03:00AM 39.2361 -84.2969 227° Southwest 143 165 8,000  Level Indianapolis Center
03:01AM 39.2081 -84.3361 227° Southwest 145 167 8,000  Level Indianapolis Center
03:02AM 39.1811 -84.3742 228° Southwest 144 166 8,000  Level Indianapolis Center
03:03AM 39.1569 -84.4053 225° Southwest 144 166 8,000  Level Indianapolis Center
03:04AM 39.1300 -84.4442 228° Southwest 145 167 8,000  Level Indianapolis Center
03:05AM 39.1000 -84.4833 225° Southwest 142 163 8,000  Level Cincinnati TRACON
03:06AM 39.0833 -84.5167 237° Southwest 144 166 8,000  Level Cincinnati TRACON
03:07AM 39.0500 -84.5500 218° Southwest 142 163 8,000  Level Cincinnati TRACON
03:08AM 39.0167 -84.5833 218° Southwest 142 163 8,000  Level Cincinnati TRACON
03:09AM 39.0000 -84.6333 247° West 144 166 8,000  Level Cincinnati TRACON
03:10AM 38.9667 -84.6667 218° Southwest 141 162 8,000  Level Cincinnati TRACON
03:11AM 38.9333 -84.7000 218° Southwest 142 163 8,000  Level Cincinnati TRACON
03:12AM 38.9167 -84.7333 237° Southwest 141 162 8,000  Level Cincinnati TRACON
03:13AM 38.8833 -84.7833 229° Southwest 143 165 8,000  Level Cincinnati TRACON
03:14AM 38.8553 -84.8211 226° Southwest 143 165 8,000  Level Indianapolis Center
03:15AM 38.8272 -84.8594 227° Southwest 143 165 8,000  Level Indianapolis Center
03:16AM 38.7997 -84.8950 225° Southwest 141 162 8,000  Level Indianapolis Center
03:17AM 38.7728 -84.9331 228° Southwest 143 165 8,000  Level Indianapolis Center
03:18AM 38.7456 -84.9706 227° Southwest 141 162 8,000  Level Indianapolis Center
03:19AM 38.7167 -85.0083 226° Southwest 146 168 8,000  Level Indianapolis Center
03:20AM 38.6942 -85.0392 227° Southwest 143 165 8,000  Level Indianapolis Center
03:21AM 38.6667 -85.0767 227° Southwest 143 165 8,000  Level Indianapolis Center
03:22AM 38.6397 -85.1133 227° Southwest 141 162 8,000  Level Indianapolis Center
03:23AM 38.6078 -85.1556 226° Southwest 149 171 8,000  Level Indianapolis Center
03:24AM 38.5786 -85.1986 229° Southwest 146 168 8,000  Level FAA TRACON SMA TRACON (SMA)
03:24AM 38.5694 -85.2094 223° Southwest 146 168 8,000 -300 Level FAA TRACON SMA TRACON (SMA)
03:25AM 38.5583 -85.2244 227° Southwest 150 173 7,800 -780 Descending FAA TRACON SMA TRACON (SMA)
03:25AM 38.5486 -85.2372 226° Southwest 158 182 7,500 -900 Descending FAA TRACON SMA TRACON (SMA)
03:25AM 38.5389 -85.2506 227° Southwest 165 190 7,200 -900 Descending FAA TRACON SMA TRACON (SMA)
03:26AM 38.5267 -85.2672 227° Southwest 168 193 6,900 -780 Descending FAA TRACON SMA TRACON (SMA)
03:26AM 38.5169 -85.2806 227° Southwest 167 192 6,700 -600 Descending FAA TRACON SMA TRACON (SMA)
03:26AM 38.5075 -85.2942 228° Southwest 166 191 6,500 -780 Descending FAA TRACON SMA TRACON (SMA)
03:27AM 38.4950 -85.3100 225° Southwest 165 190 6,200 -600 Descending FAA TRACON SMA TRACON (SMA)
03:27AM 38.4856 -85.3228 227° Southwest 161 185 6,100 -480 Descending FAA TRACON SMA TRACON (SMA)
03:27AM 38.4761 -85.3356 227° Southwest 160 184 5,900 -600 Descending FAA TRACON SMA TRACON (SMA)
03:28AM 38.4642 -85.3506 225° Southwest 157 181 5,700 -600 Descending FAA TRACON SMA TRACON (SMA)
03:28AM 38.4544 -85.3625 224° Southwest 157 181 5,500 -660 Descending FAA TRACON SMA TRACON (SMA)
03:28AM 38.4450 -85.3744 225° Southwest 156 180 5,300 -780 Descending FAA TRACON SMA TRACON (SMA)
03:29AM 38.4333 -85.3903 227° Southwest 157 181 5,000 -780 Descending FAA TRACON SMA TRACON (SMA)
03:29AM 38.4244 -85.4025 227° Southwest 156 180 4,800 -600 Descending FAA TRACON SMA TRACON (SMA)
03:29AM 38.4150 -85.4144 225° Southwest 153 176 4,600 -780 Descending FAA TRACON SMA TRACON (SMA)
03:30AM 38.4044 -85.4297 229° Southwest 151 174 4,300 -720 Descending FAA TRACON SMA TRACON (SMA)
03:30AM 38.3956 -85.4419 227° Southwest 151 174 4,100 -420 Descending FAA TRACON SMA TRACON (SMA)
03:30AM 38.3844 -85.4558 224° Southwest 145 167 4,000 -180 Descending FAA TRACON SMA TRACON (SMA)
03:31AM 38.3769 -85.4667 229° Southwest 137 158 4,000  Level FAA TRACON SMA TRACON (SMA)
03:31AM 38.3694 -85.4769 227° Southwest 132 152 4,000  Level FAA TRACON SMA TRACON (SMA)
03:31AM 38.3617 -85.4875 227° Southwest 130 150 4,000 -360 Level FAA TRACON SMA TRACON (SMA)
03:32AM 38.3519 -85.5000 225° Southwest 130 150 3,800 -480 Descending FAA TRACON SMA TRACON (SMA)
03:32AM 38.3442 -85.5106 227° Southwest 130 150 3,700 -300 Descending FAA TRACON SMA TRACON (SMA)
03:32AM 38.3361 -85.5208 225° Southwest 132 152 3,600 -480 Descending FAA TRACON SMA TRACON (SMA)
03:33AM 38.3264 -85.5342 227° Southwest 133 153 3,400 -480 Descending FAA TRACON SMA TRACON (SMA)
03:33AM 38.3186 -85.5450 228° Southwest 135 155 3,300 -300 Descending FAA TRACON SMA TRACON (SMA)
03:33AM 38.3108 -85.5558 228° Southwest 135 155 3,200 -480 Descending FAA TRACON SMA TRACON (SMA)
03:34AM 38.3006 -85.5692 226° Southwest 136 157 3,000 -600 Descending FAA TRACON SMA TRACON (SMA)
03:34AM 38.2928 -85.5800 228° Southwest 137 158 2,800 -480 Descending FAA TRACON SMA TRACON (SMA)
03:34AM 38.2847 -85.5908 227° Southwest 134 154 2,700 -480 Descending FAA TRACON SMA TRACON (SMA)
03:35AM 38.2761 -85.6056 233° Southwest 136 157 2,500 -480 Descending FAA TRACON SMA TRACON (SMA)
03:35AM 38.2697 -85.6189 239° Southwest 138 159 2,400 -360 Descending FAA TRACON SMA TRACON (SMA)
03:35AM 38.2639 -85.6317 240° Southwest 138 159 2,300 -300 Descending FAA TRACON SMA TRACON (SMA)
03:36AM 38.2556 -85.6472 236° Southwest 138 159 2,200 -300 Descending FAA TRACON SMA TRACON (SMA)
03:36AM 38.2500 -85.6611 243° Southwest 141 162 2,100 -360 Descending FAA TRACON SMA TRACON (SMA)
03:36AM 38.2442 -85.6744 241° Southwest 142 163 2,000 -180 Descending FAA TRACON SMA TRACON (SMA)
03:37AM 38.2375 -85.6919 244° Southwest 141 162 2,000 -180 Level FAA TRACON SMA TRACON (SMA)
03:37AM 38.2322 -85.7053 243° Southwest 139 160 1,900 -300 Descending FAA TRACON SMA TRACON (SMA)
03:37AM 38.2278 -85.7208 250° West 124 143 1,800 -480 Descending FAA TRACON SMA TRACON (SMA)
03:38AM 38.2217 -85.7306 231° Southwest 114 131 1,600 -780 Descending FAA TRACON SMA TRACON (SMA)
03:38AM 38.2128 -85.7353 203° Southwest 112 129 1,300 -900 Descending FAA TRACON SMA TRACON (SMA)
03:38AM 38.2033 -85.7361 184° South 112 129 1,000 -900 Descending FAA TRACON SMA TRACON (SMA)
03:39AM 38.1911 -85.7325 167° South 116 133 700 -900 Descending FAA TRACON SMA TRACON (SMA)
03:41AM 38.1667 -85.7333 230° Southwest  Level FlightAware Approximate